sensor_id;sensor_type;location;lat;lon;timestamp;temperature;humidity
19174;DHT22;9719;49.322;8.536;2022-07-29T00:01:57;23.80;47.40
19174;DHT22;9719;49.322;8.536;2022-07-29T00:06:59;23.70;48.00
19174;DHT22;9719;49.322;8.536;2022-07-29T00:12:01;23.70;48.50
19174;DHT22;9719;49.322;8.536;2022-07-29T00:17:04;23.70;48.80
19174;DHT22;9719;49.322;8.536;2022-07-29T00:22:07;23.70;49.00
19174;DHT22;9719;49.322;8.536;2022-07-29T00:27:09;23.60;49.20
19174;DHT22;9719;49.322;8.536;2022-07-29T00:32:12;22.70;49.70
19174;DHT22;9719;49.322;8.536;2022-07-29T00:37:14;23.50;50.40
19174;DHT22;9719;49.322;8.536;2022-07-29T00:42:16;23.40;50.60
19174;DHT22;9719;49.322;8.536;2022-07-29T00:47:20;23.40;51.20
19174;DHT22;9719;49.322;8.536;2022-07-29T00:52:22;23.30;51.60
19174;DHT22;9719;49.322;8.536;2022-07-29T00:57:25;23.30;51.90
19174;DHT22;9719;49.322;8.536;2022-07-29T01:02:28;23.30;52.40
19174;DHT22;9719;49.322;8.536;2022-07-29T01:07:31;23.30;52.70
19174;DHT22;9719;49.322;8.536;2022-07-29T01:12:34;23.30;53.20
19174;DHT22;9719;49.322;8.536;2022-07-29T01:17:42;23.40;53.30
19174;DHT22;9719;49.322;8.536;2022-07-29T01:23:07;23.30;53.90
19174;DHT22;9719;49.322;8.536;2022-07-29T01:28:34;23.30;53.80
19174;DHT22;9719;49.322;8.536;2022-07-29T01:33:41;23.30;54.30
19174;DHT22;9719;49.322;8.536;2022-07-29T01:38:54;23.30;54.60
19174;DHT22;9719;49.322;8.536;2022-07-29T01:44:06;23.30;55.00
19174;DHT22;9719;49.322;8.536;2022-07-29T01:49:17;23.20;55.10
19174;DHT22;9719;49.322;8.536;2022-07-29T01:54:26;23.20;55.30
19174;DHT22;9719;49.322;8.536;2022-07-29T01:59:33;23.10;55.30
19174;DHT22;9719;49.322;8.536;2022-07-29T02:04:37;23.10;55.50
19174;DHT22;9719;49.322;8.536;2022-07-29T02:09:40;23.00;55.90
19174;DHT22;9719;49.322;8.536;2022-07-29T02:14:47;22.90;56.10
19174;DHT22;9719;49.322;8.536;2022-07-29T02:19:50;22.70;56.30
19174;DHT22;9719;49.322;8.536;2022-07-29T02:24:53;22.50;56.60
19174;DHT22;9719;49.322;8.536;2022-07-29T02:30:00;22.40;56.80
19174;DHT22;9719;49.322;8.536;2022-07-29T02:35:03;22.30;57.00
19174;DHT22;9719;49.322;8.536;2022-07-29T02:40:09;22.00;57.50
19174;DHT22;9719;49.322;8.536;2022-07-29T02:45:13;21.80;57.80
19174;DHT22;9719;49.322;8.536;2022-07-29T02:50:20;21.70;58.40
19174;DHT22;9719;49.322;8.536;2022-07-29T02:55:25;21.60;58.40
19174;DHT22;9719;49.322;8.536;2022-07-29T03:00:31;21.50;58.70
19174;DHT22;9719;49.322;8.536;2022-07-29T03:05:33;21.40;58.80
19174;DHT22;9719;49.322;8.536;2022-07-29T03:10:36;21.30;58.90
19174;DHT22;9719;49.322;8.536;2022-07-29T03:15:42;21.30;59.20
19174;DHT22;9719;49.322;8.536;2022-07-29T03:20:44;21.10;59.70
19174;DHT22;9719;49.322;8.536;2022-07-29T03:25:46;21.00;60.00
19174;DHT22;9719;49.322;8.536;2022-07-29T03:30:50;20.90;60.30
19174;DHT22;9719;49.322;8.536;2022-07-29T03:35:52;20.80;60.80
19174;DHT22;9719;49.322;8.536;2022-07-29T03:40:57;20.70;61.10
19174;DHT22;9719;49.322;8.536;2022-07-29T03:46:05;20.60;61.30
19174;DHT22;9719;49.322;8.536;2022-07-29T03:51:08;20.50;61.90
19174;DHT22;9719;49.322;8.536;2022-07-29T03:56:10;20.50;62.10
19174;DHT22;9719;49.322;8.536;2022-07-29T04:01:18;20.40;62.20
19174;DHT22;9719;49.322;8.536;2022-07-29T04:06:21;20.40;62.70
19174;DHT22;9719;49.322;8.536;2022-07-29T04:11:23;20.30;62.80
19174;DHT22;9719;49.322;8.536;2022-07-29T04:16:27;20.20;63.00
19174;DHT22;9719;49.322;8.536;2022-07-29T04:21:28;20.20;63.40
19174;DHT22;9719;49.322;8.536;2022-07-29T04:26:30;20.10;63.90
19174;DHT22;9719;49.322;8.536;2022-07-29T04:31:34;20.10;64.20
19174;DHT22;9719;49.322;8.536;2022-07-29T04:36:36;20.10;64.50
19174;DHT22;9719;49.322;8.536;2022-07-29T04:41:38;20.10;64.50
19174;DHT22;9719;49.322;8.536;2022-07-29T04:46:41;20.10;64.80
19174;DHT22;9719;49.322;8.536;2022-07-29T04:51:45;20.00;65.00
19174;DHT22;9719;49.322;8.536;2022-07-29T04:56:49;20.10;65.50
19174;DHT22;9719;49.322;8.536;2022-07-29T05:01:52;20.10;65.80
19174;DHT22;9719;49.322;8.536;2022-07-29T05:06:54;20.20;66.00
19174;DHT22;9719;49.322;8.536;2022-07-29T05:11:56;20.30;66.20
19174;DHT22;9719;49.322;8.536;2022-07-29T05:17:00;20.50;66.40
19174;DHT22;9719;49.322;8.536;2022-07-29T05:22:02;20.60;66.40
19174;DHT22;9719;49.322;8.536;2022-07-29T05:27:04;20.70;66.30
19174;DHT22;9719;49.322;8.536;2022-07-29T05:32:07;21.00;66.40
19174;DHT22;9719;49.322;8.536;2022-07-29T05:37:09;21.30;66.20
19174;DHT22;9719;49.322;8.536;2022-07-29T05:42:11;21.60;65.80
19174;DHT22;9719;49.322;8.536;2022-07-29T05:47:15;21.90;65.40
19174;DHT22;9719;49.322;8.536;2022-07-29T05:52:18;22.10;65.10
19174;DHT22;9719;49.322;8.536;2022-07-29T05:57:21;22.30;64.70
19174;DHT22;9719;49.322;8.536;2022-07-29T06:02:24;22.60;64.30
19174;DHT22;9719;49.322;8.536;2022-07-29T06:07:26;22.80;63.80
19174;DHT22;9719;49.322;8.536;2022-07-29T06:12:28;23.00;63.50
19174;DHT22;9719;49.322;8.536;2022-07-29T06:17:31;23.20;63.30
19174;DHT22;9719;49.322;8.536;2022-07-29T06:22:33;23.40;62.90
19174;DHT22;9719;49.322;8.536;2022-07-29T06:27:35;23.50;62.50
19174;DHT22;9719;49.322;8.536;2022-07-29T06:32:39;23.70;62.20
19174;DHT22;9719;49.322;8.536;2022-07-29T06:37:41;23.90;61.80
19174;DHT22;9719;49.322;8.536;2022-07-29T06:42:43;24.00;61.50
19174;DHT22;9719;49.322;8.536;2022-07-29T06:47:46;24.10;61.30
19174;DHT22;9719;49.322;8.536;2022-07-29T06:52:49;24.10;61.00
19174;DHT22;9719;49.322;8.536;2022-07-29T06:57:51;24.20;61.10
19174;DHT22;9719;49.322;8.536;2022-07-29T07:02:59;24.40;61.10
19174;DHT22;9719;49.322;8.536;2022-07-29T07:08:01;24.60;60.70
19174;DHT22;9719;49.322;8.536;2022-07-29T07:13:04;24.50;60.40
19174;DHT22;9719;49.322;8.536;2022-07-29T07:18:07;24.60;60.50
19174;DHT22;9719;49.322;8.536;2022-07-29T07:23:09;24.70;60.70
19174;DHT22;9719;49.322;8.536;2022-07-29T07:28:13;24.80;60.30
19174;DHT22;9719;49.322;8.536;2022-07-29T07:33:16;24.80;60.20
19174;DHT22;9719;49.322;8.536;2022-07-29T07:38:18;24.80;60.40
19174;DHT22;9719;49.322;8.536;2022-07-29T07:43:20;24.90;60.60
19174;DHT22;9719;49.322;8.536;2022-07-29T07:48:24;25.20;60.00
19174;DHT22;9719;49.322;8.536;2022-07-29T07:53:26;25.40;59.60
19174;DHT22;9719;49.322;8.536;2022-07-29T07:58:30;25.60;59.00
19174;DHT22;9719;49.322;8.536;2022-07-29T08:03:34;25.70;58.70
19174;DHT22;9719;49.322;8.536;2022-07-29T08:08:36;25.70;58.90
19174;DHT22;9719;49.322;8.536;2022-07-29T08:13:39;25.90;58.40
19174;DHT22;9719;49.322;8.536;2022-07-29T08:18:44;26.20;58.50
19174;DHT22;9719;49.322;8.536;2022-07-29T08:23:46;26.40;57.90
19174;DHT22;9719;49.322;8.536;2022-07-29T08:28:49;26.60;57.70
19174;DHT22;9719;49.322;8.536;2022-07-29T08:33:53;26.70;57.10
19174;DHT22;9719;49.322;8.536;2022-07-29T08:38:59;26.70;57.30
19174;DHT22;9719;49.322;8.536;2022-07-29T08:44:01;26.70;57.20
19174;DHT22;9719;49.322;8.536;2022-07-29T08:49:04;26.90;57.20
19174;DHT22;9719;49.322;8.536;2022-07-29T08:54:09;27.10;56.90
19174;DHT22;9719;49.322;8.536;2022-07-29T08:59:13;27.10;56.60
19174;DHT22;9719;49.322;8.536;2022-07-29T09:04:17;27.40;56.00
19174;DHT22;9719;49.322;8.536;2022-07-29T09:09:20;27.60;55.30
19174;DHT22;9719;49.322;8.536;2022-07-29T09:14:22;27.70;54.90
19174;DHT22;9719;49.322;8.536;2022-07-29T09:19:28;27.80;54.60
19174;DHT22;9719;49.322;8.536;2022-07-29T09:24:41;27.80;54.20
19174;DHT22;9719;49.322;8.536;2022-07-29T09:29:43;28.00;54.40
19174;DHT22;9719;49.322;8.536;2022-07-29T09:34:46;28.10;54.00
19174;DHT22;9719;49.322;8.536;2022-07-29T09:39:48;28.40;53.30
19174;DHT22;9719;49.322;8.536;2022-07-29T09:44:50;28.80;53.10
19174;DHT22;9719;49.322;8.536;2022-07-29T09:49:56;29.30;51.90
19174;DHT22;9719;49.322;8.536;2022-07-29T09:55:06;31.00;50.20
19174;DHT22;9719;49.322;8.536;2022-07-29T10:00:10;33.60;46.20
19174;DHT22;9719;49.322;8.536;2022-07-29T10:05:22;35.30;42.10
19174;DHT22;9719;49.322;8.536;2022-07-29T10:10:25;36.40;40.80
19174;DHT22;9719;49.322;8.536;2022-07-29T10:15:29;37.50;37.70
19174;DHT22;9719;49.322;8.536;2022-07-29T10:20:35;38.40;35.60
19174;DHT22;9719;49.322;8.536;2022-07-29T10:25:37;39.00;33.20
19174;DHT22;9719;49.322;8.536;2022-07-29T10:30:39;39.00;31.90
19174;DHT22;9719;49.322;8.536;2022-07-29T10:35:58;38.40;31.10
19174;DHT22;9719;49.322;8.536;2022-07-29T10:41:16;37.80;32.00
19174;DHT22;9719;49.322;8.536;2022-07-29T10:46:34;36.90;31.70
19174;DHT22;9719;49.322;8.536;2022-07-29T10:52:02;36.20;32.00
19174;DHT22;9719;49.322;8.536;2022-07-29T10:57:16;35.80;32.40
19174;DHT22;9719;49.322;8.536;2022-07-29T11:02:41;35.60;31.60
19174;DHT22;9719;49.322;8.536;2022-07-29T11:08:23;34.80;31.60
19174;DHT22;9719;49.322;8.536;2022-07-29T11:13:45;34.30;33.30
19174;DHT22;9719;49.322;8.536;2022-07-29T11:19:19;34.10;33.70
19174;DHT22;9719;49.322;8.536;2022-07-29T11:24:24;33.90;33.60
19174;DHT22;9719;49.322;8.536;2022-07-29T11:29:29;33.80;33.30
19174;DHT22;9719;49.322;8.536;2022-07-29T11:34:32;33.70;34.10
19174;DHT22;9719;49.322;8.536;2022-07-29T11:39:38;33.50;34.20
19174;DHT22;9719;49.322;8.536;2022-07-29T11:44:56;33.40;34.40
19174;DHT22;9719;49.322;8.536;2022-07-29T11:49:59;33.50;34.60
19174;DHT22;9719;49.322;8.536;2022-07-29T11:55:05;33.50;34.60
19174;DHT22;9719;49.322;8.536;2022-07-29T12:00:08;33.60;34.50
19174;DHT22;9719;49.322;8.536;2022-07-29T12:05:11;33.70;34.60
19174;DHT22;9719;49.322;8.536;2022-07-29T12:10:15;33.60;34.10
19174;DHT22;9719;49.322;8.536;2022-07-29T12:15:18;33.50;34.00
19174;DHT22;9719;49.322;8.536;2022-07-29T12:20:26;33.40;35.00
19174;DHT22;9719;49.322;8.536;2022-07-29T12:25:33;33.40;34.60
19174;DHT22;9719;49.322;8.536;2022-07-29T12:30:38;33.50;34.40
19174;DHT22;9719;49.322;8.536;2022-07-29T12:35:42;33.70;33.90
19174;DHT22;9719;49.322;8.536;2022-07-29T12:40:47;33.70;32.90
19174;DHT22;9719;49.322;8.536;2022-07-29T12:45:50;33.40;33.10
19174;DHT22;9719;49.322;8.536;2022-07-29T12:50:56;33.10;33.20
19174;DHT22;9719;49.322;8.536;2022-07-29T12:56:00;33.20;34.00
19174;DHT22;9719;49.322;8.536;2022-07-29T13:01:08;32.70;33.80
19174;DHT22;9719;49.322;8.536;2022-07-29T13:06:30;32.70;34.30
19174;DHT22;9719;49.322;8.536;2022-07-29T13:11:34;32.60;34.10
19174;DHT22;9719;49.322;8.536;2022-07-29T13:16:38;32.50;34.10
19174;DHT22;9719;49.322;8.536;2022-07-29T13:21:59;32.30;34.20
19174;DHT22;9719;49.322;8.536;2022-07-29T13:27:03;32.00;34.30
19174;DHT22;9719;49.322;8.536;2022-07-29T13:32:05;31.90;34.10
19174;DHT22;9719;49.322;8.536;2022-07-29T13:37:07;31.80;34.40
19174;DHT22;9719;49.322;8.536;2022-07-29T13:42:11;31.60;35.00
19174;DHT22;9719;49.322;8.536;2022-07-29T13:47:13;31.60;35.20
19174;DHT22;9719;49.322;8.536;2022-07-29T13:52:16;31.60;35.50
19174;DHT22;9719;49.322;8.536;2022-07-29T13:57:20;31.70;34.50
19174;DHT22;9719;49.322;8.536;2022-07-29T14:02:22;31.80;34.00
19174;DHT22;9719;49.322;8.536;2022-07-29T14:07:24;31.80;34.00
19174;DHT22;9719;49.322;8.536;2022-07-29T14:12:28;31.80;33.70
19174;DHT22;9719;49.322;8.536;2022-07-29T14:17:30;31.80;34.00
19174;DHT22;9719;49.322;8.536;2022-07-29T14:22:32;31.70;34.30
19174;DHT22;9719;49.322;8.536;2022-07-29T14:27:35;31.50;34.60
19174;DHT22;9719;49.322;8.536;2022-07-29T14:32:37;31.20;35.30
19174;DHT22;9719;49.322;8.536;2022-07-29T14:37:39;31.00;35.40
19174;DHT22;9719;49.322;8.536;2022-07-29T14:42:44;30.80;35.70
19174;DHT22;9719;49.322;8.536;2022-07-29T14:47:47;30.80;36.40
19174;DHT22;9719;49.322;8.536;2022-07-29T14:52:50;30.90;35.90
19174;DHT22;9719;49.322;8.536;2022-07-29T14:57:53;31.00;36.60
19174;DHT22;9719;49.322;8.536;2022-07-29T15:02:59;31.10;36.10
19174;DHT22;9719;49.322;8.536;2022-07-29T15:08:02;31.10;35.70
19174;DHT22;9719;49.322;8.536;2022-07-29T15:13:08;31.10;35.70
19174;DHT22;9719;49.322;8.536;2022-07-29T15:18:11;31.20;35.30
19174;DHT22;9719;49.322;8.536;2022-07-29T15:23:13;31.20;34.90
19174;DHT22;9719;49.322;8.536;2022-07-29T15:28:17;31.20;35.40
19174;DHT22;9719;49.322;8.536;2022-07-29T15:33:18;31.20;34.10
19174;DHT22;9719;49.322;8.536;2022-07-29T15:38:20;31.10;34.40
19174;DHT22;9719;49.322;8.536;2022-07-29T15:43:24;31.20;34.20
19174;DHT22;9719;49.322;8.536;2022-07-29T15:48:26;31.30;33.90
19174;DHT22;9719;49.322;8.536;2022-07-29T15:53:28;31.30;33.40
19174;DHT22;9719;49.322;8.536;2022-07-29T15:58:32;31.20;33.30
19174;DHT22;9719;49.322;8.536;2022-07-29T16:03:34;31.10;32.50
19174;DHT22;9719;49.322;8.536;2022-07-29T16:08:36;31.00;32.80
19174;DHT22;9719;49.322;8.536;2022-07-29T16:13:39;30.90;32.50
19174;DHT22;9719;49.322;8.536;2022-07-29T16:18:41;30.90;32.30
19174;DHT22;9719;49.322;8.536;2022-07-29T16:23:43;30.70;32.50
19174;DHT22;9719;49.322;8.536;2022-07-29T16:28:47;30.60;33.00
19174;DHT22;9719;49.322;8.536;2022-07-29T16:33:49;30.50;32.80
19174;DHT22;9719;49.322;8.536;2022-07-29T16:38:51;30.40;33.20
19174;DHT22;9719;49.322;8.536;2022-07-29T16:43:55;30.40;33.20
19174;DHT22;9719;49.322;8.536;2022-07-29T16:48:57;30.40;33.60
19174;DHT22;9719;49.322;8.536;2022-07-29T16:53:59;30.40;32.90
19174;DHT22;9719;49.322;8.536;2022-07-29T16:59:02;30.40;33.50
19174;DHT22;9719;49.322;8.536;2022-07-29T17:04:04;30.50;32.90
19174;DHT22;9719;49.322;8.536;2022-07-29T17:09:07;30.60;32.10
19174;DHT22;9719;49.322;8.536;2022-07-29T17:14:11;30.60;31.90
19174;DHT22;9719;49.322;8.536;2022-07-29T17:19:13;30.70;31.90
19174;DHT22;9719;49.322;8.536;2022-07-29T17:24:15;30.70;31.40
19174;DHT22;9719;49.322;8.536;2022-07-29T17:29:18;30.70;31.70
19174;DHT22;9719;49.322;8.536;2022-07-29T17:34:20;30.60;31.70
19174;DHT22;9719;49.322;8.536;2022-07-29T17:39:22;30.50;31.50
19174;DHT22;9719;49.322;8.536;2022-07-29T17:44:26;30.50;31.50
19174;DHT22;9719;49.322;8.536;2022-07-29T17:49:28;30.40;32.10
19174;DHT22;9719;49.322;8.536;2022-07-29T17:54:30;30.30;31.90
19174;DHT22;9719;49.322;8.536;2022-07-29T17:59:34;30.20;32.10
19174;DHT22;9719;49.322;8.536;2022-07-29T18:04:37;30.00;31.30
19174;DHT22;9719;49.322;8.536;2022-07-29T18:09:39;29.90;31.00
19174;DHT22;9719;49.322;8.536;2022-07-29T18:14:42;29.80;31.10
19174;DHT22;9719;49.322;8.536;2022-07-29T18:19:49;29.70;33.20
19174;DHT22;9719;49.322;8.536;2022-07-29T18:24:56;29.50;35.50
19174;DHT22;9719;49.322;8.536;2022-07-29T18:30:02;29.30;37.00
19174;DHT22;9719;49.322;8.536;2022-07-29T18:35:05;29.20;37.70
19174;DHT22;9719;49.322;8.536;2022-07-29T18:40:16;28.30;40.20
19174;DHT22;9719;49.322;8.536;2022-07-29T18:45:21;26.90;42.30
19174;DHT22;9719;49.322;8.536;2022-07-29T18:50:29;25.80;43.80
19174;DHT22;9719;49.322;8.536;2022-07-29T18:55:31;25.00;45.20
19174;DHT22;9719;49.322;8.536;2022-07-29T19:00:39;24.70;44.50
19174;DHT22;9719;49.322;8.536;2022-07-29T19:05:43;24.70;43.60
19174;DHT22;9719;49.322;8.536;2022-07-29T19:10:45;25.00;44.10
19174;DHT22;9719;49.322;8.536;2022-07-29T19:15:48;25.20;44.80
19174;DHT22;9719;49.322;8.536;2022-07-29T19:20:50;25.60;44.90
19174;DHT22;9719;49.322;8.536;2022-07-29T19:25:53;25.70;44.80
19174;DHT22;9719;49.322;8.536;2022-07-29T19:30:56;25.70;44.60
19174;DHT22;9719;49.322;8.536;2022-07-29T19:35:59;25.90;45.40
19174;DHT22;9719;49.322;8.536;2022-07-29T19:41:01;25.90;45.80
19174;DHT22;9719;49.322;8.536;2022-07-29T19:46:04;25.90;46.10
19174;DHT22;9719;49.322;8.536;2022-07-29T19:51:07;25.90;46.10
19174;DHT22;9719;49.322;8.536;2022-07-29T19:56:08;25.80;46.40
19174;DHT22;9719;49.322;8.536;2022-07-29T20:01:12;25.80;46.80
19174;DHT22;9719;49.322;8.536;2022-07-29T20:06:14;25.70;47.30
19174;DHT22;9719;49.322;8.536;2022-07-29T20:11:16;25.50;47.60
19174;DHT22;9719;49.322;8.536;2022-07-29T20:16:19;25.50;47.80
19174;DHT22;9719;49.322;8.536;2022-07-29T20:21:21;25.50;48.30
19174;DHT22;9719;49.322;8.536;2022-07-29T20:26:26;25.40;48.50
19174;DHT22;9719;49.322;8.536;2022-07-29T20:31:29;25.40;48.70
19174;DHT22;9719;49.322;8.536;2022-07-29T20:36:32;25.20;49.10
19174;DHT22;9719;49.322;8.536;2022-07-29T20:41:34;25.20;49.50
19174;DHT22;9719;49.322;8.536;2022-07-29T20:46:37;25.00;49.80
19174;DHT22;9719;49.322;8.536;2022-07-29T20:51:39;25.00;49.80
19174;DHT22;9719;49.322;8.536;2022-07-29T20:56:41;24.80;50.30
19174;DHT22;9719;49.322;8.536;2022-07-29T21:01:45;24.80;50.50
19174;DHT22;9719;49.322;8.536;2022-07-29T21:06:47;24.70;50.70
19174;DHT22;9719;49.322;8.536;2022-07-29T21:11:48;24.70;51.80
19174;DHT22;9719;49.322;8.536;2022-07-29T21:16:52;24.50;51.80
19174;DHT22;9719;49.322;8.536;2022-07-29T21:21:54;24.40;52.30
19174;DHT22;9719;49.322;8.536;2022-07-29T21:26:56;24.30;52.70
19174;DHT22;9719;49.322;8.536;2022-07-29T21:32:13;24.30;53.10
19174;DHT22;9719;49.322;8.536;2022-07-29T21:37:15;24.20;53.60
19174;DHT22;9719;49.322;8.536;2022-07-29T21:42:17;24.10;53.80
19174;DHT22;9719;49.322;8.536;2022-07-29T21:47:21;24.10;54.40
19174;DHT22;9719;49.322;8.536;2022-07-29T21:52:23;24.00;54.40
19174;DHT22;9719;49.322;8.536;2022-07-29T21:57:25;23.90;54.60
19174;DHT22;9719;49.322;8.536;2022-07-29T22:02:28;23.80;55.00
19174;DHT22;9719;49.322;8.536;2022-07-29T22:07:30;23.80;55.20
19174;DHT22;9719;49.322;8.536;2022-07-29T22:12:32;23.70;55.60
19174;DHT22;9719;49.322;8.536;2022-07-29T22:17:36;23.60;55.60
19174;DHT22;9719;49.322;8.536;2022-07-29T22:22:38;23.50;56.10
19174;DHT22;9719;49.322;8.536;2022-07-29T22:27:40;23.40;56.40
19174;DHT22;9719;49.322;8.536;2022-07-29T22:32:44;23.30;56.70
19174;DHT22;9719;49.322;8.536;2022-07-29T22:37:47;23.10;57.10
19174;DHT22;9719;49.322;8.536;2022-07-29T22:42:50;23.10;57.50
19174;DHT22;9719;49.322;8.536;2022-07-29T22:47:54;23.00;57.80
19174;DHT22;9719;49.322;8.536;2022-07-29T22:52:56;23.00;58.10
19174;DHT22;9719;49.322;8.536;2022-07-29T22:57:58;22.90;58.40
19174;DHT22;9719;49.322;8.536;2022-07-29T23:03:01;23.00;58.60
19174;DHT22;9719;49.322;8.536;2022-07-29T23:08:03;22.90;58.80
19174;DHT22;9719;49.322;8.536;2022-07-29T23:13:05;22.80;59.00
19174;DHT22;9719;49.322;8.536;2022-07-29T23:18:09;22.80;59.40
19174;DHT22;9719;49.322;8.536;2022-07-29T23:23:11;22.70;59.40
19174;DHT22;9719;49.322;8.536;2022-07-29T23:28:13;22.60;59.40
19174;DHT22;9719;49.322;8.536;2022-07-29T23:33:16;22.50;59.70
19174;DHT22;9719;49.322;8.536;2022-07-29T23:38:19;22.40;60.10
19174;DHT22;9719;49.322;8.536;2022-07-29T23:43:21;22.20;60.50
19174;DHT22;9719;49.322;8.536;2022-07-29T23:48:24;22.00;61.00
19174;DHT22;9719;49.322;8.536;2022-07-29T23:53:26;22.00;61.80
19174;DHT22;9719;49.322;8.536;2022-07-29T23:58:30;21.80;61.80
